Latest Weather Observations for Sydney Harbour

IDN60901

Issued at 4:41 pm EST Sunday 24 July 2016 (issued every 10 minutes, with the page automatically refreshed every 10 minutes)

About weather observations | Map of Sydney area stations | Latest observations for Sydney area | Other Formats
Station Details ID: 066196 Name: WEDDING CAKE WEST Lat: -33.84 Lon: 151.26 Height: 6.0 m
Data from the previous 72 hours. | See also: Recent months at Sydney Harbour
Date/Time
EST
Temp
°C
App
Temp
°C
Dew
Point
°C
Rel
Hum
%
Delta-T
°C
Wind Press
QNH
hPa
Press
MSL
hPa
Rain since
9am
mm
Dir  Spd
km/h
Gust
km/h
Spd
kts
Gust
kts
24/04:30pm 12.8 - - - - NW 15 20 8 11 - - -
24/04:00pm 12.9 - - - - NW 17 26 9 14 - - -
24/03:30pm 12.6 - - - - WNW 19 26 10 14 - - -
24/03:00pm 12.4 - - - - WNW 19 26 10 14 - - -
24/02:30pm 12.0 - - - - W 24 32 13 17 - - -
24/02:00pm 11.5 - - - - WSW 24 32 13 17 - - -
24/01:30pm 11.5 - - - - W 20 28 11 15 - - -
24/01:00pm 11.2 - - - - W 20 28 11 15 - - -
24/12:30pm 11.0 - - - - W 20 30 11 16 - - -
24/12:00pm 10.5 - - - - W 28 37 15 20 - - -
24/11:30am 10.4 - - - - W 24 35 13 19 - - -
24/11:00am 10.2 - - - - W 24 30 13 16 - - -
24/10:30am 10.0 - - - - W 28 37 15 20 - - -
24/10:00am 10.2 - - - - W 28 35 15 19 - - -
24/09:30am 9.7 - - - - W 26 33 14 18 - - -
24/09:00am 9.4 - - - - W 28 35 15 19 - - -
24/08:30am 9.2 - - - - WNW 28 35 15 19 - - -
24/08:00am 9.3 - - - - W 24 32 13 17 - - -
24/07:30am 9.3 - - - - W 26 35 14 19 - - -
24/07:00am 9.1 - - - - W 26 32 14 17 - - -
24/06:30am 9.2 - - - - W 32 43 17 23 - - -
24/06:00am 9.3 - - - - WNW 30 43 16 23 - - -
24/05:30am 9.7 - - - - W 24 33 13 18 - - -
24/05:00am 9.8 - - - - W 24 35 13 19 - - -
24/04:30am 10.3 - - - - W 30 39 16 21 - - -
24/04:00am 10.5 - - - - W 28 35 15 19 - - -
24/03:30am 10.7 - - - - W 28 39 15 21 - - -
24/03:00am 10.7 - - - - W 26 39 14 21 - - -
24/02:30am 10.5 - - - - W 26 37 14 20 - - -
24/02:00am 10.9 - - - - SW 28 35 15 19 - - -
24/01:30am 11.0 - - - - SW 28 33 15 18 - - -
24/01:00am 11.3 - - - - SW 33 44 18 24 - - -
24/12:34am 11.6 - - - - SW 33 52 18 28 - - -
24/12:30am 11.7 - - - - SW 32 41 17 22 - - -
24/12:00am 11.9 - - - - SW 33 41 18 22 - - -
 
Date/Time
EST
Temp
°C
App
Temp
°C
Dew
Point
°C
Rel
Hum
%
Delta-T
°C
Wind Press
QNH
hPa
Press
MSL
hPa
Rain since
9am
mm
Dir  Spd
km/h
Gust
km/h
Spd
kts
Gust
kts
23/11:30pm 12.0 - - - - SW 33 48 18 26 - - -
23/11:29pm 12.0 - - - - SW 32 48 17 26 - - -
23/11:00pm 12.5 - - - - WSW 24 30 13 16 - - -
23/10:30pm 12.5 - - - - SW 24 32 13 17 - - -
23/10:00pm 12.6 - - - - SW 20 32 11 17 - - -
23/09:30pm 12.9 - - - - SW 22 28 12 15 - - -
23/09:00pm 13.1 - - - - SW 33 43 18 23 - - -
23/08:30pm 13.4 - - - - SW 28 35 15 19 - - -
23/08:00pm 13.8 - - - - WSW 26 37 14 20 - - -
23/07:30pm 14.4 - - - - SW 24 30 13 16 - - -
23/07:00pm 14.3 - - - - W 22 33 12 18 - - -
23/06:30pm 14.4 - - - - WNW 22 33 12 18 - - -
23/06:00pm 14.8 - - - - WNW 19 24 10 13 - - -
23/05:30pm 15.2 - - - - WNW 17 22 9 12 - - -
23/05:07pm 15.6 - - - - W 30 48 16 26 - - -
23/05:00pm 15.8 - - - - W 35 48 19 26 - - -
23/04:30pm 16.1 - - - - W 35 46 19 25 - - -
23/04:16pm 16.3 - - - - W 39 57 21 31 - - -
23/04:00pm 16.5 - - - - W 33 50 18 27 - - -
23/03:30pm 16.6 - - - - W 39 59 21 32 - - -
23/03:03pm 16.9 - - - - W 37 56 20 30 - - -
23/03:00pm 16.8 - - - - W 41 56 22 30 - - -
23/02:30pm 16.6 - - - - W 44 69 24 37 - - -
23/02:00pm 16.4 - - - - W 48 69 26 37 - - -
23/01:33pm 16.3 - - - - WNW 43 61 23 33 - - -
23/01:30pm 16.2 - - - - WNW 44 61 24 33 - - -
23/01:03pm 16.1 - - - - WNW 39 69 21 37 - - -
23/01:00pm 16.0 - - - - WNW 41 54 22 29 - - -
23/12:30pm 15.9 - - - - WNW 44 65 24 35 - - -
23/12:00pm 15.9 - - - - WNW 41 61 22 33 - - -
23/11:30am 15.6 - - - - W 46 67 25 36 - - -
23/11:00am 15.6 - - - - W 44 63 24 34 - - -
23/10:30am 15.2 - - - - WNW 43 69 23 37 - - -
23/10:14am 15.0 - - - - W 35 56 19 30 - - -
23/10:00am 15.0 - - - - W 43 57 23 31 - - -
23/09:31am 15.0 - - - - W 39 57 21 31 - - -
23/09:30am 14.9 - - - - W 43 57 23 31 - - -
23/09:00am 14.9 - - - - W 46 69 25 37 - - -
23/08:50am 15.0 - - - - W 39 59 21 32 - - -
23/08:30am 15.3 - - - - WNW 35 52 19 28 - - -
23/08:00am 15.6 - - - - W 48 67 26 36 - - -
23/07:31am 16.0 - - - - WNW 43 63 23 34 - - -
23/07:30am 15.9 - - - - WNW 41 57 22 31 - - -
23/07:17am 15.8 - - - - WNW 32 54 17 29 - - -
23/07:00am 15.9 - - - - WNW 37 50 20 27 - - -
23/06:30am 16.3 - - - - W 33 44 18 24 - - -
23/06:06am 16.6 - - - - WSW 30 50 16 27 - - -
23/06:00am 16.6 - - - - WSW 28 37 15 20 - - -
23/05:30am 17.4 - - - - WNW 35 50 19 27 - - -
23/05:17am 17.4 - - - - WNW 33 52 18 28 - - -
23/05:00am 17.6 - - - - WNW 35 50 19 27 - - -
23/04:30am 17.7 - - - - WNW 28 39 15 21 - - -
23/04:00am 18.3 - - - - W 30 46 16 25 - - -
23/03:37am 18.8 - - - - W 37 56 20 30 - - -
23/03:30am 18.9 - - - - W 37 52 20 28 - - -
23/03:18am 19.0 - - - - W 30 52 16 28 - - -
23/03:00am 18.5 - - - - WNW 28 39 15 21 - - -
23/02:30am 18.4 - - - - WNW 22 28 12 15 - - -
23/02:00am 18.5 - - - - WSW 24 32 13 17 - - -
23/01:30am 18.5 - - - - WNW 20 26 11 14 - - -
23/01:00am 18.1 - - - - SW 22 26 12 14 - - -
23/12:30am 17.6 - - - - SW 26 35 14 19 - - -
23/12:27am 17.7 - - - - SSW 28 35 15 19 - - -
23/12:00am 18.9 - - - - SSW 39 54 21 29 - - -
 
Date/Time
EST
Temp
°C
App
Temp
°C
Dew
Point
°C
Rel
Hum
%
Delta-T
°C
Wind Press
QNH
hPa
Press
MSL
hPa
Rain since
9am
mm
Dir  Spd
km/h
Gust
km/h
Spd
kts
Gust
kts
22/11:52pm 20.9 - - - - WNW 28 54 15 29 - - -
22/11:50pm 21.8 - - - - NW 22 50 12 27 - - -
22/11:30pm 23.8 - - - - N 26 35 14 19 - - -
22/11:00pm 23.3 - - - - N 17 26 9 14 - - -
22/10:30pm 23.2 - - - - N 20 30 11 16 - - -
22/10:00pm 22.8 - - - - N 22 26 12 14 - - -
22/09:30pm 23.0 - - - - N 22 30 12 16 - - -
22/09:00pm 23.0 - - - - N 24 30 13 16 - - -
22/08:30pm 22.9 - - - - NNW 24 33 13 18 - - -
22/08:00pm 23.1 - - - - NNW 30 37 16 20 - - -
22/07:30pm 23.2 - - - - N 20 30 11 16 - - -
22/07:00pm 23.0 - - - - N 20 30 11 16 - - -
22/06:30pm 22.7 - - - - N 15 20 8 11 - - -
22/06:00pm 23.3 - - - - NNW 15 19 8 10 - - -
22/05:30pm 23.9 - - - - NNW 15 26 8 14 - - -
22/05:00pm 24.1 - - - - NNW 22 37 12 20 - - -
22/04:30pm 24.3 - - - - NNW 19 24 10 13 - - -
22/04:00pm 24.8 - - - - NNW 20 28 11 15 - - -
22/03:30pm 25.1 - - - - N 24 32 13 17 - - -
22/03:00pm 24.6 - - - - N 24 35 13 19 - - -
22/02:30pm 23.8 - - - - N 24 30 13 16 - - -
22/02:00pm 23.7 - - - - N 32 41 17 22 - - -
22/01:30pm 23.7 - - - - NNW 32 44 17 24 - - -
22/01:00pm 23.1 - - - - N 32 44 17 24 - - -
22/12:35pm 22.5 - - - - N 30 48 16 26 - - -
22/12:30pm 22.4 - - - - NNW 32 48 17 26 - - -
22/12:00pm 21.5 - - - - N 28 41 15 22 - - -
22/11:30am 21.2 - - - - N 30 41 16 22 - - -
22/11:00am 20.7 - - - - N 33 46 18 25 - - -
22/10:30am 20.1 - - - - N 30 41 16 22 - - -
22/10:00am 20.2 - - - - N 32 43 17 23 - - -
22/09:30am 20.1 - - - - NNW 33 43 18 23 - - -
22/09:00am 19.5 - - - - NNW 26 43 14 23 - - -
22/08:30am 19.3 - - - - NNW 22 37 12 20 - - -
22/08:15am 18.8 - - - - NNW 28 46 15 25 - - -
22/08:00am 18.2 - - - - NNW 17 28 9 15 - - -
22/07:30am 16.7 - - - - NNW 15 26 8 14 - - -
22/07:00am 16.2 - - - - NW 13 24 7 13 - - -
22/06:30am 15.9 - - - - NW 17 26 9 14 - - -
22/06:00am 15.8 - - - - NNW 20 30 11 16 - - -
22/05:30am 16.0 - - - - NNW 24 30 13 16 - - -
22/05:00am 15.7 - - - - NW 26 32 14 17 - - -
22/04:30am 15.3 - - - - NW 24 32 13 17 - - -
22/04:00am 15.8 - - - - NW 20 30 11 16 - - -
22/03:30am 15.2 - - - - WNW 7 13 4 7 - - -
22/03:00am 14.9 - - - - NW 26 33 14 18 - - -
22/02:30am 15.1 - - - - NNW 28 33 15 18 - - -
22/02:24am 15.3 - - - - NW 28 33 15 18 - - -
22/02:00am 14.4 - - - - NNW 6 9 3 5 - - -
22/01:30am 14.2 - - - - CALM 0 0 0 0 - - -
22/01:00am 14.7 - - - - CALM 0 4 0 2 - - -
22/12:30am 14.7 - - - - NNW 7 9 4 5 - - -
22/12:00am 14.8 - - - - NNW 11 15 6 8 - - -
 
Date/Time
EST
Temp
°C
App
Temp
°C
Dew
Point
°C
Rel
Hum
%
Delta-T
°C
Wind Press
QNH
hPa
Press
MSL
hPa
Rain since
9am
mm
Dir  Spd
km/h
Gust
km/h
Spd
kts
Gust
kts
21/11:30pm 15.1 - - - - N 13 17 7 9 - - -
21/11:00pm 15.6 - - - - N 11 15 6 8 - - -
21/10:30pm 15.6 - - - - N 9 13 5 7 - - -
21/10:00pm 15.7 - - - - NNW 11 15 6 8 - - -
21/09:30pm 15.6 - - - - NNW 11 13 6 7 - - -
21/09:00pm 15.8 - - - - NNW 11 15 6 8 - - -
21/08:30pm 16.0 - - - - N 11 13 6 7 - - -
21/08:00pm 16.2 - - - - N 9 11 5 6 - - -
21/07:30pm 16.5 - - - - N 11 13 6 7 - - -
21/07:00pm 16.9 - - - - N 13 15 7 8 - - -
21/06:30pm 16.7 - - - - NNW 11 13 6 7 - - -
21/06:00pm 16.8 - - - - WSW 7 7 4 4 - - -
21/05:30pm 16.9 - - - - WSW 7 7 4 4 - - -
21/05:00pm 17.1 - - - - WSW 6 7 3 4 - - -

Latest Capital City Observations: Canberra | Sydney | Melbourne | Brisbane | Adelaide | Perth | Hobart | Darwin

Other Formats:

Comma delimited format used in spreadsheet applications
http://www.bom.gov.au/fwo/IDN60901/IDN60901.95766.axf

JavaScript Object Notation format (JSON) in row-major order
http://www.bom.gov.au/fwo/IDN60901/IDN60901.95766.json